Flight Track Log - Related Links

Times and Time Zones

All times are in EDT time to prevent confusion due to time zone crossing. See the N983CA flight status page for this flight to view local times or setup timezone preferences in your user account.

Time Position Orientation Groundspeed Altitude Reporting Facility
EDT Latitude Longitude Course Direction KTS MPH feet Rate Location/Type
Sun 10:12:49 AM 34.1772 -118.3497 54° Northeast 175 201 33,000  Level Los Angeles Center
Sun 10:13:50 AM 34.1381 -118.3836 216° Southwest 216 249 3,400 -13,623 Descending Los Angeles Center
Sun 10:14:51 AM 34.1689 -118.4525 298° West 256 295 5,300 2,115 Climbing Los Angeles Center
Sun 10:15:52 AM 34.2400 -118.4244 18° North 266 306 7,700 2,213 Climbing Los Angeles Center
Sun 10:16:00 AM 34.4025 -118.4116 59° Northeast  Level FlightAware Approximate
Sun 10:16:53 AM 34.3147 -118.3953 18° North 279 321 9,800  Level Los Angeles Center
Sun 10:17:00 AM 34.4650 -118.2942 51° Northeast  Level FlightAware Approximate
Sun 10:17:54 AM 34.3917 -118.3633 19° North 289 333 11,700  Level Los Angeles Center
Sun 10:18:00 AM 34.5381 -118.1866 54° Northeast  Level FlightAware Approximate
Sun 10:18:55 AM 34.4692 -118.3247 22° Northeast 300 345 13,500  Level Los Angeles Center
Sun 10:19:56 AM 34.5208 -118.2419 53° Northeast 307 353 15,100 1,426 Climbing Los Angeles Center
Sun 10:20:57 AM 34.5747 -118.1556 53° Northeast 321 369 16,400 1,279 Climbing Los Angeles Center
Sun 10:21:58 AM 34.6319 -118.0539 56° Northeast 338 389 17,700 1,279 Climbing Los Angeles Center
Sun 10:22:59 AM 34.6444 -117.9347 83° East 358 412 19,000 1,279 Climbing Los Angeles Center
Sun 10:24:00 AM 34.6581 -117.8150 82° East 360 414 20,300 1,122 Climbing Los Angeles Center
Sun 10:25:02 AM 34.6808 -117.6942 77° East 369 425 21,300 976 Climbing Los Angeles Center
Sun 10:26:03 AM 34.7114 -117.5728 73° East 378 435 22,300 893 Climbing Los Angeles Center
Sun 10:27:03 AM 34.7369 -117.4756 72° East 380 437 23,100 984 Climbing Los Angeles Center
Sun 10:28:05 AM 34.7736 -117.3275 73° East 385 443 24,300 1,171 Climbing Los Angeles Center
Sun 10:29:06 AM 34.8108 -117.1800 73° East 384 442 25,500 1,082 Climbing Los Angeles Center
Sun 10:30:07 AM 34.8428 -117.0569 72° East 384 442 26,500 836 Climbing Los Angeles Center
Sun 10:31:08 AM 34.8739 -116.9333 73° East 384 442 27,200 590 Climbing Los Angeles Center
Sun 10:32:09 AM 34.9047 -116.8083 73° East 386 444 27,700 492 Climbing Los Angeles Center
Sun 10:33:10 AM 34.9544 -116.6894 63° Northeast 402 463 28,200 492 Climbing Los Angeles Center
Sun 10:34:11 AM 35.0281 -116.5897 48° Northeast 400 460 28,700 492 Climbing Los Angeles Center
Sun 10:35:12 AM 35.1033 -116.4900 47° Northeast 402 463 29,200 492 Climbing Los Angeles Center
Sun 10:36:13 AM 35.1775 -116.3875 48° Northeast 404 465 29,700 492 Climbing Los Angeles Center
Sun 10:37:14 AM 35.2536 -116.2872 47° Northeast 403 464 30,200 492 Climbing Los Angeles Center
Sun 10:38:15 AM 35.3294 -116.1833 48° Northeast 408 470 30,700 541 Climbing Los Angeles Center
Sun 10:39:16 AM 35.4214 -116.0597 48° Northeast 409 471 31,300 537 Climbing Los Angeles Center
Sun 10:40:18 AM 35.4975 -115.9564 48° Northeast 408 470 31,800 488 Climbing Los Angeles Center
Sun 10:41:19 AM 35.5714 -115.8572 47° Northeast 409 471 32,300 492 Climbing Los Angeles Center
Sun 10:42:20 AM 35.6472 -115.7583 47° Northeast 401 461 32,800 344 Climbing Los Angeles Center
Sun 10:43:21 AM 35.7217 -115.6544 49° Northeast 403 464 33,000 98 Climbing Los Angeles Center
Sun 10:44:22 AM 35.7972 -115.5514 48° Northeast 406 467 33,000  Level Los Angeles Center
Sun 10:45:23 AM 35.8744 -115.4439 48° Northeast 414 476 33,000  Level Los Angeles Center
Sun 10:46:24 AM 35.9681 -115.3161 48° Northeast 420 483 33,000  Level Los Angeles Center
Sun 10:47:26 AM 36.0450 -115.2078 49° Northeast 422 486 33,000  Level Los Angeles Center
Sun 10:48:39 AM 36.1025 -115.0833 60° Northeast 425 489 33,000  Level Los Angeles Center
Sun 10:49:40 AM 36.1525 -114.9225 69° East 423 487 33,000  Level Los Angeles Center
Sun 10:50:42 AM 36.1939 -114.7883 69° East 422 486 33,000  Level Los Angeles Center
Sun 10:51:43 AM 36.2350 -114.6531 69° East 421 484 33,000  Level Los Angeles Center
Sun 10:52:44 AM 36.2758 -114.5178 69° East 421 484 33,000  Level Los Angeles Center
Sun 10:53:46 AM 36.3164 -114.3814 70° East 423 487 33,000  Level Los Angeles Center
Sun 10:54:47 AM 36.3658 -114.2183 69° East 423 487 33,000  Level Los Angeles Center
Sun 10:55:48 AM 36.4067 -114.0822 70° East 422 486 33,000  Level Los Angeles Center
Sun 10:56:50 AM 36.4469 -113.9461 70° East 421 484 33,000  Level Los Angeles Center
Sun 10:57:51 AM 36.4897 -113.8092 69° East 424 488 33,000  Level Los Angeles Center
Sun 10:58:52 AM 36.5283 -113.6733 70° East 422 486 33,000  Level Los Angeles Center
Sun 10:59:54 AM 36.5689 -113.5381 69° East 419 482 33,000  Level Los Angeles Center
Sun 11:00:55 AM 36.6089 -113.4008 70° East 421 484 33,000  Level Los Angeles Center
Sun 11:01:57 AM 36.6478 -113.2642 70° East 421 484 33,000  Level Los Angeles Center
Sun 11:02:58 AM 36.6958 -113.0989 70° East 423 487 33,000  Level Los Angeles Center
Sun 11:04:00 AM 36.7350 -112.9617 70° East 423 487 33,000  Level Los Angeles Center
Sun 11:05:01 AM 36.7742 -112.8264 70° East 419 482 33,000  Level Los Angeles Center
Sun 11:06:03 AM 36.8136 -112.6886 70° East 422 486 33,000  Level Los Angeles Center
Sun 11:07:04 AM 36.8522 -112.5525 70° East 420 483 33,000  Level Los Angeles Center
Sun 11:08:06 AM 36.8906 -112.4156 71° East 420 483 33,000  Level Los Angeles Center
Sun 11:09:08 AM 36.9294 -112.2783 70° East 421 484 33,000  Level Los Angeles Center
Sun 11:10:09 AM 36.9756 -112.1133 71° East 421 484 33,000  Level Los Angeles Center
Sun 11:10:34 AM 36.9911 -112.0578 71° East 422 486 33,000  Level Denver Center
Sun 11:11:36 AM 37.0286 -111.9192 71° East 423 487 33,000  Level Denver Center
Sun 11:12:38 AM 37.0683 -111.7817 70° East 423 487 33,000  Level Denver Center
Sun 11:13:40 AM 37.1053 -111.6422 72° East 424 488 33,000  Level Denver Center
Sun 11:14:42 AM 37.1431 -111.5036 71° East 423 487 33,000  Level Denver Center
Sun 11:15:44 AM 37.1878 -111.3369 71° East 423 487 33,000  Level Denver Center
Sun 11:16:46 AM 37.2253 -111.1981 71° East 422 486 33,000  Level Denver Center
Sun 11:17:48 AM 37.2636 -111.0589 71° East 423 487 33,000  Level Denver Center
Sun 11:18:50 AM 37.3003 -110.9186 72° East 424 488 33,000  Level Denver Center
Sun 11:19:52 AM 37.3375 -110.7797 71° East 423 487 33,000  Level Denver Center
Sun 11:20:54 AM 37.3739 -110.6400 72° East 422 486 33,000  Level Denver Center
Sun 11:21:56 AM 37.4194 -110.4711 71° East 425 489 33,000  Level Denver Center
Sun 11:22:58 AM 37.4550 -110.3297 72° East 426 490 33,000  Level Denver Center
Sun 11:24:00 AM 37.4903 -110.1936 72° East 425 489 33,000  Level Denver Center
Sun 11:25:02 AM 37.5314 -110.0344 72° East 426 490 33,000  Level Denver Center
Sun 11:26:04 AM 37.5672 -109.8969 72° East 429 494 33,000  Level Denver Center
Sun 11:27:06 AM 37.6069 -109.7378 72° East 427 491 33,000  Level Denver Center
Sun 11:28:08 AM 37.6419 -109.6008 72° East 425 489 33,000  Level Denver Center
Sun 11:29:10 AM 37.6767 -109.4647 72° East 425 489 33,000  Level Denver Center
Sun 11:30:11 AM 37.7161 -109.3047 73° East 427 491 33,000  Level Denver Center
Sun 11:31:13 AM 37.7497 -109.1700 72° East 421 484 33,000  Level Denver Center
Sun 11:32:15 AM 37.7897 -109.0117 72° East 420 483 33,000  Level Denver Center
Sun 11:33:17 AM 37.8336 -108.8811 67° East 421 484 33,000  Level Denver Center
Sun 11:34:31 AM 37.9019 -108.7433 58° Northeast 414 476 33,000  Level Denver Center
Sun 11:35:33 AM 37.9600 -108.6233 58° Northeast 416 479 33,000  Level Denver Center
Sun 11:36:35 AM 38.0375 -108.4622 59° Northeast 418 481 33,000  Level Denver Center
Sun 11:37:37 AM 38.1028 -108.3250 59° Northeast 423 487 33,000  Level Denver Center
Sun 11:38:39 AM 38.1606 -108.2053 58° Northeast 419 482 33,000  Level Denver Center
Sun 11:39:41 AM 38.2186 -108.0844 59° Northeast 418 481 33,000  Level Denver Center
Sun 11:40:43 AM 38.2858 -107.9442 59° Northeast 417 480 33,000  Level Denver Center
Sun 11:41:45 AM 38.3431 -107.8228 59° Northeast 418 481 33,000  Level Denver Center
Sun 11:42:47 AM 38.4106 -107.6817 59° Northeast 419 482 33,000  Level Denver Center
Sun 11:43:49 AM 38.4672 -107.5603 59° Northeast 417 480 33,000  Level Denver Center
Sun 11:44:51 AM 38.5325 -107.4142 60° Northeast 423 487 33,000  Level Denver Center
Sun 11:45:53 AM 38.5883 -107.2900 60° Northeast 423 487 33,000  Level Denver Center
Sun 11:46:54 AM 38.6492 -107.1539 60° Northeast 421 484 33,000  Level Denver Center
Sun 11:47:56 AM 38.7072 -107.0242 60° Northeast 420 483 33,000  Level Denver Center
Sun 11:48:58 AM 38.7636 -106.8933 61° Northeast 420 483 33,000  Level Denver Center
Sun 11:50:00 AM 38.8214 -106.7628 60° Northeast 423 487 33,000  Level Denver Center
Sun 11:51:02 AM 38.8931 -106.6031 60° Northeast 425 489 33,000  Level Denver Center
Sun 11:52:04 AM 38.9506 -106.4789 59° Northeast 423 487 33,000 -290 Level Denver Center
Sun 11:53:06 AM 39.0175 -106.3336 59° Northeast 424 488 32,400 -919 Descending Denver Center
Sun 11:54:08 AM 39.0772 -106.1994 60° Northeast 449 517 31,100 -1,645 Descending Denver Center
Sun 11:55:10 AM 39.1497 -106.0400 60° Northeast 458 527 29,000 -1,887 Descending Denver Center
Sun 11:56:12 AM 39.2106 -105.9017 60° Northeast 443 510 27,200 -1,790 Descending Denver Center
Sun 11:57:14 AM 39.2686 -105.7667 61° Northeast 430 495 25,300 -1,610 Descending Denver Center
Sun 11:58:15 AM 39.3147 -105.6636 60° Northeast 402 463 23,900 -1,742 Descending Denver Center
Sun 11:59:18 AM 39.3778 -105.5214 60° Northeast 386 444 21,700 -1,872 Descending Denver Center
Sun 12:00:20 PM 39.4339 -105.4064 58° Northeast 358 412 20,000 -1,610 Descending Denver Center
Sun 12:01:21 PM 39.4867 -105.3097 55° Northeast 333 383 18,400 -1,561 Descending Denver Center
Sun 12:02:23 PM 39.5431 -105.1997 56° Northeast 335 386 16,800 -1,452 Descending Denver Center
Sun 12:03:25 PM 39.5914 -105.1092 55° Northeast 307 353 15,400 -1,258 Descending Denver Center
Sun 12:04:27 PM 39.6381 -105.0183 56° Northeast 303 349 14,200 -1,113 Descending Denver Center
Sun 12:05:29 PM 39.6883 -104.9225 56° Northeast 300 345 13,100 -532 Descending Denver Center
Sun 12:06:31 PM 39.7361 -104.8483 50° Northeast 283 326 13,100 -435 Level Denver Center
Sun 12:07:33 PM 39.8125 -104.8411 North 251 289 12,200 -871 Descending Denver Center
Sun 12:08:35 PM 39.8808 -104.8397 North 244 281 11,300 -629 Descending Denver Center
Sun 12:09:37 PM 39.9478 -104.8392 360° North 239 275 10,900 -823 Descending Denver Center
Sun 12:10:39 PM 40.0186 -104.8400 359° North 235 270 9,600 -1,161 Descending Denver Center
Sun 12:11:41 PM 40.0772 -104.8203 14° North 232 267 8,500 -726 Descending Denver Center
Sun 12:12:43 PM 40.0589 -104.7442 107° East 228 262 8,100 -387 Descending Denver Center

Login

Don't have an account? Register now (free) for customized features, flight alerts, and more!